Time,TemperatureF,DewpointF,PressureIn,WindDirection,WindDirectionDegrees,WindSpeedMPH,WindSpeedGustMPH,Humidity,HourlyPrecipIn,Conditions,Clouds,dailyrainin,SolarRadiationWatts/m^2,SoftwareType,DateUTC
2013-08-15 00:11:00,93.0,47.0,-100.00,SSW,210,4.0,6.0,21,-99.99,,,0.00,0.000000,,2013-08-15 07:11:00,
2013-08-15 00:21:00,93.0,47.0,-100.00,SSW,210,4.0,6.0,21,-99.99,,,0.00,0.000000,,2013-08-15 07:21:00,
2013-08-15 00:32:00,93.0,47.0,-100.00,SSW,210,4.0,6.0,21,-99.99,,,0.00,0.000000,,2013-08-15 07:32:00,
2013-08-15 00:41:00,93.0,47.0,-100.00,SSW,210,4.0,6.0,21,-99.99,,,0.00,0.000000,,2013-08-15 07:41:00,
2013-08-15 01:11:00,88.0,52.0,-100.00,NNE,32,0.0,6.0,29,0.00,,,0.00,0.000000,,2013-08-15 08:11:00,
2013-08-15 01:21:00,88.0,52.0,-100.00,NNE,32,0.0,6.0,29,0.00,,,0.00,0.000000,,2013-08-15 08:21:00,
2013-08-15 01:32:00,88.0,52.0,-100.00,NNE,32,0.0,6.0,29,0.00,,,0.00,0.000000,,2013-08-15 08:32:00,
2013-08-15 01:41:00,88.0,52.0,-100.00,NNE,32,0.0,6.0,29,0.00,,,0.00,0.000000,,2013-08-15 08:41:00,
2013-08-15 04:11:00,85.0,51.0,-100.00,South,186,4.0,7.0,31,-99.99,,,-99.99,0.000000,,2013-08-15 11:11:00,
2013-08-15 04:22:00,85.0,51.0,-100.00,South,186,4.0,7.0,31,-99.99,,,-99.99,0.000000,,2013-08-15 11:22:00,
2013-08-15 04:32:00,85.0,51.0,-100.00,South,186,4.0,7.0,31,-99.99,,,-99.99,0.000000,,2013-08-15 11:32:00,
2013-08-15 04:42:00,85.0,51.0,-100.00,South,186,4.0,7.0,31,-99.99,,,-99.99,0.000000,,2013-08-15 11:42:00,
2013-08-15 07:12:00,84.0,60.0,-100.00,South,190,3.0,6.0,44,-99.99,,,0.00,30.000000,,2013-08-15 14:12:00,
2013-08-15 07:22:00,84.0,60.0,-100.00,South,190,3.0,6.0,44,-99.99,,,0.00,30.000000,,2013-08-15 14:22:00,
2013-08-15 07:32:00,84.0,60.0,-100.00,South,190,3.0,6.0,44,-99.99,,,0.00,30.000000,,2013-08-15 14:32:00,
2013-08-15 07:42:00,84.0,60.0,-100.00,South,190,3.0,6.0,44,-99.99,,,0.00,30.000000,,2013-08-15 14:42:00,
2013-08-15 08:23:00,90.0,61.0,-100.00,SSE,156,3.0,5.0,38,0.00,,,0.00,194.000000,,2013-08-15 15:23:00,
2013-08-15 08:34:00,90.0,61.0,-100.00,SSE,156,3.0,5.0,38,0.00,,,0.00,194.000000,,2013-08-15 15:34:00,
2013-08-15 08:43:00,90.0,61.0,-100.00,SSE,156,3.0,5.0,38,0.00,,,0.00,194.000000,,2013-08-15 15:43:00,
2013-08-15 09:13:00,94.0,59.0,-100.00,SSE,157,5.0,7.0,31,0.00,,,0.00,401.000000,,2013-08-15 16:13:00,
2013-08-15 09:26:00,94.0,59.0,-100.00,SSE,157,5.0,7.0,31,0.00,,,0.00,401.000000,,2013-08-15 16:26:00,
2013-08-15 09:35:00,94.0,59.0,-100.00,SSE,157,5.0,7.0,31,0.00,,,0.00,401.000000,,2013-08-15 16:35:00,
2013-08-15 09:44:00,94.0,59.0,-100.00,SSE,157,5.0,7.0,31,0.00,,,0.00,401.000000,,2013-08-15 16:44:00,
2013-08-15 09:48:00,101.0,54.0,-100.00,SSE,162,5.0,8.0,21,0.00,,,0.00,644.000000,,2013-08-15 16:48:00,
2013-08-15 10:18:00,101.0,54.0,-100.00,SSE,162,5.0,8.0,21,0.00,,,0.00,644.000000,,2013-08-15 17:18:00,
2013-08-15 10:30:00,101.0,-99.9,-100.00,SSE,162,5.0,8.0,21,0.00,,,0.00,644.000000,,2013-08-15 17:30:00,
2013-08-15 10:38:00,101.0,54.0,-100.00,SSE,162,5.0,8.0,21,0.00,,,0.00,644.000000,,2013-08-15 17:38:00,
2013-08-15 10:48:00,104.0,56.0,-100.00,SSE,166,8.0,11.0,21,0.00,,,0.00,805.000000,,2013-08-15 17:48:00,
2013-08-15 11:24:00,104.0,56.0,-100.00,SSE,166,8.0,11.0,21,0.00,,,0.00,805.000000,,2013-08-15 18:24:00,
2013-08-15 11:34:00,-999.0,-99.9,-100.00,SSE,166,8.0,11.0,-999,0.00,,,0.00,805.000000,,2013-08-15 18:34:00,
2013-08-15 11:40:00,-999.0,-99.9,-100.00,SSE,166,8.0,11.0,21,0.00,,,0.00,805.000000,,2013-08-15 18:40:00,
2013-08-15 11:48:00,107.0,57.0,-100.00,SSE,156,7.0,11.0,20,0.00,,,0.00,922.000000,,2013-08-15 18:48:00,
2013-08-15 12:17:00,107.0,57.0,-100.00,SSE,156,7.0,11.0,20,0.00,,,0.00,922.000000,,2013-08-15 19:17:00,
2013-08-15 12:34:00,-999.0,-99.9,-100.00,SSE,156,7.0,11.0,-999,-99.99,,,-99.99,922.000000,,2013-08-15 19:34:00,
2013-08-15 12:39:00,107.0,57.0,-100.00,SSE,156,7.0,11.0,20,0.00,,,0.00,922.000000,,2013-08-15 19:39:00,
2013-08-15 13:15:00,109.0,56.0,-100.00,South,170,7.0,12.0,18,0.00,,,0.00,985.000000,,2013-08-15 20:15:00,
2013-08-15 13:27:00,109.0,56.0,-100.00,South,170,7.0,12.0,18,0.00,,,0.00,985.000000,,2013-08-15 20:27:00,
2013-08-15 13:34:00,109.0,56.0,-100.00,South,170,7.0,12.0,18,0.00,,,0.00,985.000000,,2013-08-15 20:34:00,
2013-08-15 13:43:00,109.0,56.0,-100.00,South,170,7.0,12.0,18,0.00,,,0.00,985.000000,,2013-08-15 20:43:00,
2013-08-15 13:48:00,110.0,55.0,-100.00,SSE,156,7.0,15.0,17,0.00,,,0.00,982.000000,,2013-08-15 20:48:00,
2013-08-15 14:17:00,110.0,55.0,-100.00,SSE,156,7.0,15.0,17,0.00,,,0.00,982.000000,,2013-08-15 21:17:00,
2013-08-15 14:34:00,110.0,55.0,-100.00,SSE,156,7.0,15.0,17,0.00,,,0.00,982.000000,,2013-08-15 21:34:00,
2013-08-15 14:48:00,111.0,53.0,-100.00,SW,220,7.0,16.0,15,0.00,,,0.00,911.000000,,2013-08-15 21:48:00,
2013-08-15 15:17:00,111.0,53.0,-100.00,SW,220,7.0,16.0,15,0.00,,,0.00,911.000000,,2013-08-15 22:17:00,
2013-08-15 15:29:00,111.0,53.0,-100.00,SW,220,7.0,16.0,15,0.00,,,0.00,911.000000,,2013-08-15 22:29:00,
2013-08-15 15:40:00,111.0,53.0,-100.00,SW,220,7.0,16.0,15,0.00,,,0.00,911.000000,,2013-08-15 22:40:00,
2013-08-15 15:48:00,111.0,53.0,-100.00,SSE,157,6.0,12.0,15,0.00,,,0.00,774.000000,,2013-08-15 22:48:00,
2013-08-15 16:16:00,111.0,53.0,-100.00,SSE,157,6.0,12.0,15,0.00,,,0.00,774.000000,,2013-08-15 23:16:00,
2013-08-15 16:34:00,-999.0,-99.9,-100.00,SSE,157,6.0,12.0,15,0.00,,,0.00,774.000000,,2013-08-15 23:34:00,
2013-08-15 16:40:00,111.0,53.0,-100.00,SSE,157,6.0,12.0,15,0.00,,,0.00,774.000000,,2013-08-15 23:40:00,
2013-08-15 17:12:00,111.0,58.0,-100.00,SSE,161,5.0,12.0,18,0.00,,,0.00,581.000000,,2013-08-16 00:12:00,
2013-08-15 17:24:00,111.0,58.0,-100.00,SSE,161,5.0,12.0,18,0.00,,,0.00,581.000000,,2013-08-16 00:24:00,
2013-08-15 17:37:00,111.0,58.0,-100.00,SSE,161,5.0,12.0,18,0.00,,,0.00,581.000000,,2013-08-16 00:37:00,
2013-08-15 17:45:00,111.0,58.0,-100.00,SSE,161,5.0,12.0,18,0.00,,,0.00,581.000000,,2013-08-16 00:45:00,
2013-08-15 18:26:00,109.0,59.0,-100.00,SSE,149,4.0,9.0,20,0.00,,,0.00,364.000000,,2013-08-16 01:26:00,
2013-08-15 18:42:00,-999.0,-99.9,-100.00,SSE,149,4.0,-999.0,-999,-99.99,,,-99.99,,,2013-08-16 01:42:00,
2013-08-15 19:12:00,105.0,60.0,-100.00,SSE,149,5.0,8.0,23,0.00,,,0.00,157.000000,,2013-08-16 02:12:00,
2013-08-15 19:21:00,105.0,60.0,-100.00,SSE,149,5.0,8.0,23,0.00,,,0.00,157.000000,,2013-08-16 02:21:00,
2013-08-15 19:32:00,105.0,60.0,-100.00,SSE,149,5.0,8.0,23,0.00,,,0.00,157.000000,,2013-08-16 02:32:00,
2013-08-15 19:42:00,105.0,60.0,-100.00,SSE,149,5.0,8.0,23,0.00,,,0.00,157.000000,,2013-08-16 02:42:00,
2013-08-15 22:21:00,96.0,60.0,-100.00,SSW,201,4.0,6.0,31,0.00,,,0.00,0.000000,,2013-08-16 05:21:00,
2013-08-15 22:32:00,96.0,60.0,-100.00,SSW,201,4.0,6.0,31,0.00,,,0.00,0.000000,,2013-08-16 05:32:00,
2013-08-15 22:42:00,96.0,60.0,-100.00,SSW,201,4.0,6.0,31,0.00,,,0.00,0.000000,,2013-08-16 05:42:00,